createdAt,value
2022-08-19T00:01:59.028Z,14.77
2022-08-19T00:04:30.953Z,17.02
2022-08-19T00:06:58.272Z,13.40
2022-08-19T00:09:25.088Z,16.17
2022-08-19T00:11:53.527Z,12.10
2022-08-19T00:14:21.594Z,11.73
2022-08-19T00:16:49.435Z,11.90
2022-08-19T00:19:17.568Z,11.88
2022-08-19T00:21:44.288Z,14.20
2022-08-19T00:24:13.448Z,12.68
2022-08-19T00:26:41.763Z,10.45
2022-08-19T00:29:12.500Z,10.23
2022-08-19T00:31:39.330Z,11.48
2022-08-19T00:34:06.101Z,11.82
2022-08-19T00:36:33.479Z,10.73
2022-08-19T00:39:00.215Z,14.25
2022-08-19T00:41:27.670Z,13.07
2022-08-19T00:44:09.767Z,11.48
2022-08-19T00:46:39.376Z,12.32
2022-08-19T00:49:30.534Z,11.82
2022-08-19T00:52:04.584Z,13.13
2022-08-19T00:54:32.370Z,13.57
2022-08-19T00:57:00.496Z,13.75
2022-08-19T00:59:53.446Z,14.38
2022-08-19T01:02:17.261Z,12.88
2022-08-19T01:04:44.229Z,14.68
2022-08-19T01:07:10.639Z,14.52
2022-08-19T01:09:41.598Z,15.52
2022-08-19T01:12:09.810Z,17.98
2022-08-19T01:14:39.675Z,18.88
2022-08-19T01:17:07.311Z,16.02
2022-08-19T01:19:43.634Z,16.20
2022-08-19T01:22:36.324Z,18.58
2022-08-19T01:25:04.468Z,20.30
2022-08-19T01:27:43.198Z,19.85
2022-08-19T01:32:38.135Z,20.55
2022-08-19T01:35:05.514Z,21.05
2022-08-19T01:37:50.130Z,21.98
2022-08-19T01:40:18.046Z,19.88
2022-08-19T01:42:44.479Z,20.00
2022-08-19T01:45:11.406Z,24.42
2022-08-19T01:47:38.395Z,22.77
2022-08-19T01:50:07.209Z,18.85
2022-08-19T01:52:37.679Z,21.38
2022-08-19T01:55:06.103Z,23.52
2022-08-19T01:57:32.651Z,23.20
2022-08-19T02:00:00.922Z,22.00
2022-08-19T02:02:27.404Z,24.52
2022-08-19T02:04:53.775Z,24.15
2022-08-19T02:07:24.026Z,21.73
2022-08-19T02:09:50.480Z,23.83
2022-08-19T02:12:17.514Z,22.33
2022-08-19T02:14:44.560Z,22.67
2022-08-19T02:17:10.960Z,24.00
2022-08-19T02:19:39.001Z,22.27
2022-08-19T02:22:08.224Z,25.48
2022-08-19T02:24:35.042Z,26.50
2022-08-19T02:27:01.443Z,31.67
2022-08-19T02:29:28.340Z,23.48
2022-08-19T02:31:54.757Z,23.75
2022-08-19T02:34:21.111Z,23.85
2022-08-19T02:36:51.933Z,21.38
2022-08-19T02:39:19.331Z,25.20
2022-08-19T02:41:45.886Z,26.05
2022-08-19T02:44:28.826Z,26.50
2022-08-19T02:46:57.844Z,24.88
2022-08-19T02:49:24.846Z,22.85
2022-08-19T02:51:51.304Z,19.65
2022-08-19T02:54:17.722Z,22.13
2022-08-19T02:56:45.381Z,20.88
2022-08-19T02:59:12.505Z,25.15
2022-08-19T03:01:41.418Z,28.58
2022-08-19T03:04:11.285Z,24.88
2022-08-19T03:06:39.537Z,23.08
2022-08-19T03:09:06.067Z,28.30
2022-08-19T03:11:34.295Z,28.38
2022-08-19T03:14:03.221Z,26.98
2022-08-19T03:16:33.290Z,27.25
2022-08-19T03:19:01.346Z,25.33
2022-08-19T03:21:30.519Z,22.77
2022-08-19T03:23:58.895Z,23.20
2022-08-19T03:26:26.168Z,24.27
2022-08-19T03:28:58.640Z,24.65
2022-08-19T03:31:43.423Z,23.52
2022-08-19T03:34:27.250Z,24.92
2022-08-19T03:37:00.141Z,21.90
2022-08-19T03:39:27.170Z,24.75
2022-08-19T03:42:38.545Z,23.45
2022-08-19T03:44:45.840Z,25.67
2022-08-19T03:47:16.770Z,26.77
2022-08-19T03:49:43.515Z,28.15
2022-08-19T03:52:10.388Z,27.80
2022-08-19T03:54:36.943Z,26.15
2022-08-19T03:57:03.923Z,25.35
2022-08-19T03:59:35.334Z,26.55
2022-08-19T04:02:06.197Z,32.05
2022-08-19T04:04:32.552Z,24.02
2022-08-19T04:07:00.134Z,25.58
2022-08-19T04:09:26.825Z,24.90
2022-08-19T04:11:56.066Z,26.77
2022-08-19T04:14:26.635Z,25.70
2022-08-19T04:16:53.473Z,21.33
2022-08-19T04:19:21.065Z,22.55
2022-08-19T04:21:51.317Z,20.00
2022-08-19T04:24:18.354Z,21.38
2022-08-19T04:26:44.938Z,23.67
2022-08-19T04:29:15.388Z,24.20
2022-08-19T04:31:44.474Z,26.30
2022-08-19T04:34:13.400Z,24.13
2022-08-19T04:36:42.453Z,23.48
2022-08-19T04:39:15.684Z,20.70
2022-08-19T04:42:01.249Z,27.15
2022-08-19T04:44:31.376Z,25.27
2022-08-19T04:47:01.504Z,22.35
2022-08-19T04:49:28.198Z,24.42
2022-08-19T04:51:55.554Z,26.27
2022-08-19T04:54:37.014Z,22.85
2022-08-19T04:57:10.859Z,21.52
2022-08-19T04:59:39.409Z,20.80
2022-08-19T05:02:08.291Z,20.75
2022-08-19T05:04:34.875Z,17.88
2022-08-19T05:07:02.499Z,18.45
2022-08-19T05:09:42.150Z,19.23
2022-08-19T05:12:18.628Z,19.85
2022-08-19T05:14:45.888Z,18.85
2022-08-19T05:17:27.104Z,20.40
2022-08-19T05:20:13.372Z,20.70
2022-08-19T05:22:40.259Z,18.45
2022-08-19T05:25:13.093Z,19.95
2022-08-19T05:27:40.987Z,19.65
2022-08-19T05:30:07.976Z,18.65
2022-08-19T05:32:34.731Z,24.08
2022-08-19T05:35:01.586Z,22.90
2022-08-19T05:37:28.504Z,21.48
2022-08-19T05:39:55.912Z,22.17
2022-08-19T05:42:24.303Z,23.60
2022-08-19T05:44:51.348Z,21.27
2022-08-19T05:47:20.470Z,23.23
2022-08-19T05:49:48.229Z,22.38
2022-08-19T05:52:18.729Z,23.00
2022-08-19T05:54:51.214Z,24.52
2022-08-19T05:57:19.231Z,23.15
2022-08-19T05:59:58.231Z,21.75
2022-08-19T06:02:31.448Z,25.35
2022-08-19T06:04:58.602Z,25.85
2022-08-19T06:07:25.079Z,28.63
2022-08-19T06:10:00.537Z,20.83
2022-08-19T06:12:30.588Z,26.77
2022-08-19T06:15:00.749Z,26.40
2022-08-19T06:17:27.878Z,30.98
2022-08-19T06:19:54.605Z,26.08
2022-08-19T06:22:21.135Z,25.77
2022-08-19T06:24:47.580Z,25.27
2022-08-19T06:27:14.572Z,24.10
2022-08-19T06:29:40.935Z,22.75
2022-08-19T06:32:07.304Z,33.03
2022-08-19T06:34:36.341Z,30.17
2022-08-19T06:37:03.981Z,27.27
2022-08-19T06:39:33.806Z,24.92
2022-08-19T06:42:04.544Z,28.95
2022-08-19T06:44:35.254Z,26.17
2022-08-19T06:47:14.588Z,25.45
2022-08-19T06:49:49.311Z,21.08
2022-08-19T06:52:17.233Z,22.58
2022-08-19T06:54:55.459Z,24.88
2022-08-19T06:57:23.859Z,25.92
2022-08-19T06:59:50.395Z,23.90
2022-08-19T07:04:52.587Z,21.38
2022-08-19T07:07:21.874Z,21.17
2022-08-19T07:10:00.042Z,22.55
2022-08-19T07:12:33.811Z,18.27
2022-08-19T07:15:03.359Z,19.23
2022-08-19T07:17:29.924Z,21.27
2022-08-19T07:19:57.624Z,20.17
2022-08-19T07:22:32.635Z,22.20
2022-08-19T07:24:59.069Z,22.75
2022-08-19T07:27:25.603Z,22.23
2022-08-19T07:29:55.919Z,21.92
2022-08-19T07:32:27.489Z,23.33
2022-08-19T07:34:54.056Z,20.35
2022-08-19T07:37:20.979Z,22.25
2022-08-19T07:39:47.941Z,19.88
2022-08-19T07:42:15.348Z,21.30
2022-08-19T07:44:43.186Z,20.73
2022-08-19T07:47:49.300Z,20.88
2022-08-19T07:50:07.864Z,22.80
2022-08-19T07:52:35.075Z,22.35
2022-08-19T07:55:04.550Z,22.67
2022-08-19T07:57:31.013Z,25.58
2022-08-19T07:59:57.407Z,23.08
2022-08-19T08:02:23.787Z,22.67
2022-08-19T08:05:09.336Z,22.10
2022-08-19T08:07:54.137Z,21.92
2022-08-19T08:10:21.548Z,22.13
2022-08-19T08:13:08.651Z,20.42
2022-08-19T08:15:42.988Z,22.80
2022-08-19T08:18:11.185Z,20.75
2022-08-19T08:20:37.741Z,20.55
2022-08-19T08:23:23.062Z,22.77
2022-08-19T08:25:50.576Z,19.88
2022-08-19T08:28:19.007Z,23.95
2022-08-19T08:30:49.000Z,20.60
2022-08-19T08:33:33.322Z,19.25
2022-08-19T08:36:01.949Z,21.15
2022-08-19T08:38:34.549Z,21.02
2022-08-19T08:41:20.905Z,22.98
2022-08-19T08:43:51.993Z,22.05
2022-08-19T08:46:31.335Z,24.45
2022-08-19T08:49:21.273Z,21.23
2022-08-19T08:52:11.243Z,20.63
2022-08-19T08:54:49.216Z,22.10
2022-08-19T08:57:36.974Z,23.27
2022-08-19T09:00:15.046Z,19.83
2022-08-19T09:02:43.548Z,20.95
2022-08-19T09:05:11.015Z,22.40
2022-08-19T09:07:57.630Z,22.52
2022-08-19T09:10:30.352Z,23.00
2022-08-19T09:13:15.937Z,20.60
2022-08-19T09:15:50.129Z,20.42
2022-08-19T09:18:19.272Z,21.45
2022-08-19T09:20:48.239Z,20.27
2022-08-19T09:23:14.995Z,21.73
2022-08-19T09:25:42.041Z,21.92
2022-08-19T09:28:15.189Z,21.08
2022-08-19T09:30:49.134Z,20.38
2022-08-19T09:33:17.003Z,21.38
2022-08-19T09:35:49.786Z,19.00
2022-08-19T09:38:21.083Z,22.27
2022-08-19T09:40:47.481Z,19.73
2022-08-19T09:43:13.838Z,20.02
2022-08-19T09:45:41.230Z,18.90
2022-08-19T09:48:07.649Z,19.98
2022-08-19T09:50:39.352Z,21.08
2022-08-19T09:53:19.419Z,21.17
2022-08-19T09:55:45.853Z,19.52
2022-08-19T09:58:12.861Z,23.13
2022-08-19T10:00:39.758Z,20.38
2022-08-19T10:03:06.131Z,22.55
2022-08-19T10:05:55.123Z,17.88
2022-08-19T10:08:26.635Z,20.27
2022-08-19T10:10:54.618Z,18.38
2022-08-19T10:13:25.877Z,18.13
2022-08-19T10:15:54.934Z,20.17
2022-08-19T10:18:24.071Z,20.45
2022-08-19T10:20:55.832Z,17.60
2022-08-19T10:23:22.384Z,19.75
2022-08-19T10:25:51.092Z,19.73
2022-08-19T10:28:19.415Z,19.50
2022-08-19T10:30:46.558Z,19.88
2022-08-19T10:33:14.304Z,21.75
2022-08-19T10:35:56.279Z,19.83
2022-08-19T10:38:31.805Z,18.92
2022-08-19T10:41:08.255Z,21.92
2022-08-19T10:43:38.623Z,21.10
2022-08-19T10:46:13.910Z,20.58
2022-08-19T10:48:44.459Z,24.35
2022-08-19T10:51:30.827Z,24.92
2022-08-19T10:53:57.492Z,19.50
2022-08-19T10:56:42.597Z,23.20
2022-08-19T10:59:10.346Z,19.70
2022-08-19T11:01:37.573Z,18.80
2022-08-19T11:04:05.241Z,20.77
2022-08-19T11:06:35.290Z,21.65
2022-08-19T11:09:01.666Z,19.75
2022-08-19T11:11:29.330Z,20.35
2022-08-19T11:13:56.278Z,21.50
2022-08-19T11:16:25.514Z,21.77
2022-08-19T11:18:55.148Z,21.25
2022-08-19T11:21:23.755Z,22.13
2022-08-19T11:23:53.079Z,24.40
2022-08-19T11:26:21.100Z,23.60
2022-08-19T11:28:49.190Z,25.38
2022-08-19T11:31:21.376Z,23.20
2022-08-19T11:33:56.868Z,24.20
2022-08-19T11:36:23.266Z,26.10
2022-08-19T11:38:51.065Z,27.55
2022-08-19T11:41:20.410Z,24.50
2022-08-19T11:43:46.869Z,26.55
2022-08-19T11:46:15.775Z,22.27
2022-08-19T11:48:43.112Z,25.98
2022-08-19T11:51:13.242Z,26.95
2022-08-19T11:53:40.250Z,22.50
2022-08-19T11:56:08.343Z,24.13
2022-08-19T11:58:35.692Z,21.23
2022-08-19T12:01:02.219Z,22.83
2022-08-19T12:03:29.606Z,24.30
2022-08-19T12:05:56.023Z,26.13
2022-08-19T12:08:22.452Z,28.85
2022-08-19T12:10:49.372Z,28.40
2022-08-19T12:13:19.441Z,27.02
2022-08-19T12:15:47.887Z,24.20
2022-08-19T12:18:15.496Z,24.75
2022-08-19T12:20:44.034Z,22.65
2022-08-19T12:23:11.326Z,22.08
2022-08-19T12:25:44.351Z,19.88
2022-08-19T12:28:10.703Z,16.90
2022-08-19T12:30:39.184Z,17.35
2022-08-19T12:33:06.014Z,17.27
2022-08-19T12:35:32.744Z,21.92
2022-08-19T12:37:59.905Z,14.52
2022-08-19T12:40:27.109Z,18.92
2022-08-19T12:42:54.506Z,15.93
2022-08-19T12:45:20.929Z,15.98
2022-08-19T12:47:47.991Z,15.20
2022-08-19T12:50:16.664Z,14.65
2022-08-19T12:52:43.274Z,14.43
2022-08-19T12:55:12.344Z,16.15
2022-08-19T12:57:39.044Z,12.93
2022-08-19T13:00:14.888Z,15.68
2022-08-19T13:02:46.360Z,14.65
2022-08-19T13:05:24.977Z,12.23
2022-08-19T13:07:56.743Z,14.88
2022-08-19T13:10:26.878Z,12.95
2022-08-19T13:12:54.115Z,11.82
2022-08-19T13:15:24.135Z,13.40
2022-08-19T13:17:52.666Z,11.90
2022-08-19T13:20:21.628Z,13.52
2022-08-19T13:22:49.144Z,12.95
2022-08-19T13:25:18.763Z,11.07
2022-08-19T13:27:45.404Z,10.13
2022-08-19T13:30:33.129Z,12.40
2022-08-19T13:33:11.794Z,9.63
2022-08-19T13:35:50.780Z,11.23
2022-08-19T13:38:21.440Z,10.20
2022-08-19T13:40:51.087Z,9.18
2022-08-19T13:43:23.019Z,8.20
2022-08-19T13:45:55.040Z,9.43
2022-08-19T13:48:21.996Z,8.10
2022-08-19T13:50:49.005Z,7.80
2022-08-19T13:53:18.243Z,8.45
2022-08-19T13:55:44.867Z,8.18
2022-08-19T13:58:12.520Z,6.82
2022-08-19T14:00:43.327Z,7.20
2022-08-19T14:03:10.634Z,6.00
2022-08-19T14:05:37.892Z,6.90
2022-08-19T14:08:04.690Z,6.57
2022-08-19T14:10:32.427Z,6.00
2022-08-19T14:13:02.175Z,4.55
2022-08-19T14:15:29.664Z,4.38
2022-08-19T14:17:57.007Z,5.05
2022-08-19T14:20:25.939Z,4.97
2022-08-19T14:22:53.654Z,4.65
2022-08-19T14:25:23.212Z,4.68
2022-08-19T14:27:49.780Z,5.88
2022-08-19T14:30:20.644Z,5.57
2022-08-19T14:32:47.590Z,6.60
2022-08-19T14:35:15.782Z,7.47
2022-08-19T14:37:56.644Z,5.97
2022-08-19T14:40:28.691Z,7.22
2022-08-19T14:43:05.019Z,6.00
2022-08-19T14:45:39.100Z,6.85
2022-08-19T14:48:09.188Z,8.43
2022-08-19T14:50:46.027Z,7.60
2022-08-19T14:53:12.933Z,8.07
2022-08-19T14:55:43.863Z,8.38
2022-08-19T14:58:28.998Z,8.43
2022-08-19T15:00:58.524Z,7.00
2022-08-19T15:03:25.509Z,7.15
2022-08-19T15:05:52.456Z,8.80
2022-08-19T15:08:18.894Z,8.77
2022-08-19T15:10:46.575Z,8.98
2022-08-19T15:13:13.356Z,7.75
2022-08-19T15:15:40.355Z,9.25
2022-08-19T15:18:07.327Z,8.23
2022-08-19T15:20:33.742Z,8.68
2022-08-19T15:23:01.077Z,8.05
2022-08-19T15:25:28.819Z,8.73
2022-08-19T15:27:55.650Z,9.85
2022-08-19T15:30:28.024Z,13.18
2022-08-19T15:32:56.620Z,9.93
2022-08-19T15:35:23.995Z,10.77
2022-08-19T15:37:51.767Z,11.00
2022-08-19T15:40:19.661Z,10.02
2022-08-19T15:42:47.454Z,10.98
2022-08-19T15:45:15.204Z,12.45
2022-08-19T15:47:41.626Z,12.35
2022-08-19T15:50:21.191Z,10.27
2022-08-19T15:52:55.314Z,8.98
2022-08-19T15:55:33.800Z,8.27
2022-08-19T15:58:29.896Z,9.05
2022-08-19T16:01:21.298Z,9.07
2022-08-19T16:04:13.908Z,8.50
2022-08-19T16:06:48.077Z,9.70
2022-08-19T16:09:16.799Z,9.27
2022-08-19T16:11:45.919Z,11.23
2022-08-19T16:14:15.302Z,9.20
2022-08-19T16:16:41.985Z,9.73
2022-08-19T16:19:11.791Z,9.00
2022-08-19T16:21:41.546Z,12.20
2022-08-19T16:24:10.979Z,8.45
2022-08-19T16:26:37.924Z,8.73
2022-08-19T16:29:08.850Z,8.55
2022-08-19T16:34:06.515Z,7.85
2022-08-19T16:36:33.335Z,6.93
2022-08-19T16:39:00.626Z,8.52
2022-08-19T16:41:28.292Z,8.23
2022-08-19T16:43:55.243Z,8.07
2022-08-19T16:46:23.076Z,7.90
2022-08-19T16:48:54.255Z,7.82
2022-08-19T16:51:22.510Z,9.23
2022-08-19T16:53:49.648Z,7.75
2022-08-19T16:56:16.455Z,8.15
2022-08-19T16:58:43.136Z,6.50
2022-08-19T17:01:10.770Z,7.97
2022-08-19T17:03:38.419Z,7.93
2022-08-19T17:06:19.030Z,6.97
2022-08-19T17:08:50.258Z,8.80
2022-08-19T17:11:19.077Z,7.60
2022-08-19T17:13:47.488Z,9.05
2022-08-19T17:16:15.888Z,9.85
2022-08-19T17:18:42.260Z,8.00
2022-08-19T17:21:08.615Z,8.38
2022-08-19T17:23:36.653Z,8.43
2022-08-19T17:26:09.871Z,10.77
2022-08-19T17:28:45.018Z,9.15
2022-08-19T17:31:11.498Z,10.02
2022-08-19T17:33:41.074Z,9.45
2022-08-19T17:36:08.440Z,8.98
2022-08-19T17:38:35.769Z,9.05
2022-08-19T17:41:05.477Z,11.32
2022-08-19T17:43:37.935Z,10.50
2022-08-19T17:46:06.693Z,10.00
2022-08-19T17:48:41.236Z,9.23
2022-08-19T17:51:21.905Z,8.50
2022-08-19T17:53:51.074Z,9.40
2022-08-19T17:56:18.018Z,10.30
2022-08-19T17:58:49.668Z,10.45
2022-08-19T18:01:31.460Z,10.05
2022-08-19T18:04:13.942Z,10.00
2022-08-19T18:06:41.800Z,10.98
2022-08-19T18:09:13.406Z,10.75
2022-08-19T18:11:39.798Z,11.50
2022-08-19T18:14:06.699Z,11.63
2022-08-19T18:16:33.059Z,12.30
2022-08-19T18:18:59.607Z,12.40
2022-08-19T18:21:31.511Z,11.88
2022-08-19T18:24:01.642Z,12.80
2022-08-19T18:26:30.217Z,11.68
2022-08-19T18:28:57.262Z,13.68
2022-08-19T18:31:24.064Z,10.70
2022-08-19T18:33:53.081Z,12.23
2022-08-19T18:36:37.388Z,10.38
2022-08-19T18:39:26.318Z,9.35
2022-08-19T18:42:14.524Z,11.35
2022-08-19T18:45:00.041Z,9.65
2022-08-19T18:47:45.168Z,9.48
2022-08-19T18:50:13.874Z,10.65
2022-08-19T18:52:41.234Z,10.45
2022-08-19T18:55:08.190Z,11.20
2022-08-19T18:57:35.247Z,11.73
2022-08-19T19:00:04.683Z,10.98
2022-08-19T19:02:38.694Z,13.45
2022-08-19T19:05:07.682Z,13.80
2022-08-19T19:07:34.891Z,15.85
2022-08-19T19:10:01.332Z,16.98
2022-08-19T19:12:31.034Z,20.85
2022-08-19T19:14:59.083Z,19.77
2022-08-19T19:17:28.383Z,20.08
2022-08-19T19:19:54.929Z,20.73
2022-08-19T19:22:22.600Z,22.20
2022-08-19T19:24:50.972Z,22.17
2022-08-19T19:27:20.254Z,22.60
2022-08-19T19:29:51.935Z,23.58
2022-08-19T19:32:36.937Z,24.65
2022-08-19T19:35:06.404Z,24.77
2022-08-19T19:37:33.688Z,24.83
2022-08-19T19:40:00.120Z,24.92
2022-08-19T19:42:26.564Z,23.23
2022-08-19T19:44:56.012Z,25.05
2022-08-19T19:47:24.387Z,24.27
2022-08-19T19:52:39.144Z,22.70
2022-08-19T19:55:06.880Z,23.20
2022-08-19T19:57:33.264Z,23.20
2022-08-19T20:00:00.076Z,20.92
2022-08-19T20:02:26.842Z,24.73
2022-08-19T20:04:56.145Z,22.02
2022-08-19T20:07:42.983Z,22.75
2022-08-19T20:10:09.540Z,21.90
2022-08-19T20:12:35.911Z,23.58
2022-08-19T20:15:03.250Z,25.15
2022-08-19T20:17:29.652Z,25.10
2022-08-19T20:19:57.396Z,24.17
2022-08-19T20:22:25.535Z,23.88
2022-08-19T20:24:53.967Z,22.77
2022-08-19T20:27:20.523Z,22.73
2022-08-19T20:29:50.615Z,23.40
2022-08-19T20:32:18.540Z,23.17
2022-08-19T20:34:48.867Z,23.40
2022-08-19T20:37:15.273Z,21.73
2022-08-19T20:39:42.317Z,22.98
2022-08-19T20:42:08.783Z,24.33
2022-08-19T20:44:35.527Z,23.08
2022-08-19T20:47:04.075Z,24.10
2022-08-19T20:49:31.094Z,22.80
2022-08-19T20:51:58.514Z,24.33
2022-08-19T20:54:25.266Z,25.15
2022-08-19T20:56:51.784Z,22.23
2022-08-19T20:59:20.075Z,21.75
2022-08-19T21:01:46.907Z,23.17
2022-08-19T21:04:13.446Z,23.77
2022-08-19T21:06:39.867Z,22.58
2022-08-19T21:09:08.889Z,24.23
2022-08-19T21:11:36.011Z,26.02
2022-08-19T21:14:02.770Z,24.25
2022-08-19T21:16:29.502Z,24.95
2022-08-19T21:18:55.886Z,26.25
2022-08-19T21:21:22.227Z,24.60
2022-08-19T21:23:49.674Z,25.20
2022-08-19T21:26:16.123Z,26.75
2022-08-19T21:28:42.475Z,25.50
2022-08-19T21:31:15.139Z,28.58
2022-08-19T21:33:41.591Z,27.15
2022-08-19T21:36:08.719Z,25.58
2022-08-19T21:38:35.886Z,27.00
2022-08-19T21:41:05.816Z,29.65
2022-08-19T21:43:33.766Z,28.85
2022-08-19T21:46:00.475Z,27.52
2022-08-19T21:48:27.572Z,28.63
2022-08-19T21:50:53.929Z,27.15
2022-08-19T21:53:23.020Z,30.58
2022-08-19T21:55:53.139Z,30.25
2022-08-19T21:58:30.092Z,32.50
2022-08-19T22:01:06.098Z,28.20
2022-08-19T22:03:34.095Z,30.35
2022-08-19T22:06:00.850Z,33.63
2022-08-19T22:08:27.768Z,31.58
2022-08-19T22:10:54.206Z,30.60
2022-08-19T22:13:20.626Z,32.67
2022-08-19T22:15:49.188Z,32.95
2022-08-19T22:18:17.702Z,31.67
2022-08-19T22:20:44.954Z,29.58
2022-08-19T22:23:11.684Z,33.17
2022-08-19T22:25:43.071Z,36.08
2022-08-19T22:28:12.820Z,41.40
2022-08-19T22:30:42.601Z,32.20
2022-08-19T22:33:12.516Z,33.33
2022-08-19T22:35:41.887Z,34.05
2022-08-19T22:38:09.359Z,32.97
2022-08-19T22:40:39.567Z,34.67
2022-08-19T22:43:22.194Z,35.22
2022-08-19T22:45:49.979Z,34.20
2022-08-19T22:48:19.947Z,33.83
2022-08-19T22:51:09.219Z,37.25
2022-08-19T22:53:37.688Z,36.65
2022-08-19T22:56:06.314Z,40.40
2022-08-19T22:58:33.237Z,38.55
2022-08-19T23:01:00.030Z,32.72
2022-08-19T23:03:26.668Z,30.98
2022-08-19T23:05:54.264Z,31.60
2022-08-19T23:08:20.635Z,34.70
2022-08-19T23:10:48.442Z,36.60
2022-08-19T23:13:17.746Z,35.00
2022-08-19T23:15:46.006Z,33.83
2022-08-19T23:18:12.679Z,31.98
2022-08-19T23:20:41.444Z,32.08
2022-08-19T23:23:10.896Z,31.30
2022-08-19T23:25:38.139Z,34.42
2022-08-19T23:28:24.554Z,33.17
2022-08-19T23:30:52.763Z,28.38
2022-08-19T23:33:46.636Z,33.55
2022-08-19T23:36:19.387Z,30.70
2022-08-19T23:38:47.867Z,30.33
2022-08-19T23:41:15.591Z,31.73
2022-08-19T23:43:43.123Z,32.88
2022-08-19T23:46:11.448Z,31.17
2022-08-19T23:48:39.709Z,32.30
2022-08-19T23:51:10.243Z,29.00
2022-08-19T23:53:39.317Z,30.80
2022-08-19T23:56:07.324Z,28.23
2022-08-19T23:58:35.228Z,27.88
